createdAt,value
2018-05-24T00:01:58.377Z,102028.14
2018-05-24T00:04:25.868Z,102025.46
2018-05-24T00:06:53.356Z,102032.52
2018-05-24T00:09:20.956Z,102030.97
2018-05-24T00:11:48.451Z,102032.44
2018-05-24T00:14:15.967Z,102037.58
2018-05-24T00:16:43.476Z,102023.75
2018-05-24T00:19:11.016Z,102033.57
2018-05-24T00:21:38.480Z,102033.02
2018-05-24T00:24:05.975Z,102038.25
2018-05-24T00:26:33.481Z,102041.59
2018-05-24T00:29:01.047Z,102037.37
2018-05-24T00:31:28.597Z,102032.41
2018-05-24T00:33:56.074Z,102032.77
2018-05-24T00:36:23.589Z,102031.96
2018-05-24T00:38:51.105Z,102035.40
2018-05-24T00:41:18.679Z,102028.77
2018-05-24T00:43:46.171Z,102027.41
2018-05-24T00:46:14.140Z,102030.81
2018-05-24T00:48:41.654Z,102031.46
2018-05-24T00:51:09.156Z,102040.33
2018-05-24T00:53:36.657Z,102035.62
2018-05-24T00:56:04.171Z,102035.05
2018-05-24T00:58:31.677Z,102036.34
2018-05-24T01:00:59.167Z,102032.02
2018-05-24T01:03:26.643Z,102044.41
2018-05-24T01:05:54.249Z,102034.66
2018-05-24T01:08:21.731Z,102036.06
2018-05-24T01:10:49.220Z,102035.05
2018-05-24T01:13:16.700Z,102030.11
2018-05-24T01:15:44.402Z,102036.21
2018-05-24T01:18:11.882Z,102037.31
2018-05-24T01:20:39.406Z,102038.08
2018-05-24T01:23:06.894Z,102037.20
2018-05-24T01:25:34.439Z,102034.67
2018-05-24T01:28:01.937Z,102034.08
2018-05-24T01:30:29.423Z,102034.16
2018-05-24T01:32:56.921Z,102034.53
2018-05-24T01:35:24.466Z,102036.31
2018-05-24T01:37:52.052Z,102034.53
2018-05-24T01:40:19.538Z,102038.05
2018-05-24T01:42:47.116Z,102032.59
2018-05-24T01:45:14.532Z,102039.69
2018-05-24T01:47:42.024Z,102040.51
2018-05-24T01:50:09.498Z,102042.69
2018-05-24T01:52:37.010Z,102033.31
2018-05-24T01:55:04.576Z,102048.64
2018-05-24T01:57:32.139Z,102038.73
2018-05-24T01:59:59.621Z,102037.05
2018-05-24T02:02:27.111Z,102034.84
2018-05-24T02:04:54.621Z,102039.46
2018-05-24T02:07:22.141Z,102036.66
2018-05-24T02:09:49.629Z,102028.97
2018-05-24T02:12:17.208Z,102033.38
2018-05-24T02:14:44.743Z,102025.46
2018-05-24T02:17:12.232Z,102025.05
2018-05-24T02:19:39.729Z,102030.27
2018-05-24T02:22:07.214Z,102027.70
2018-05-24T02:24:34.808Z,102026.33
2018-05-24T02:27:02.312Z,102025.78
2018-05-24T02:29:29.856Z,102023.84
2018-05-24T02:31:57.339Z,102025.50
2018-05-24T02:34:24.862Z,102025.28
2018-05-24T02:36:52.356Z,102020.93
2018-05-24T02:39:19.882Z,102024.38
2018-05-24T02:41:47.351Z,102019.51
2018-05-24T02:44:14.941Z,102021.70
2018-05-24T02:46:42.465Z,102016.23
2018-05-24T02:49:09.967Z,102022.09
2018-05-24T02:51:37.492Z,102021.35
2018-05-24T02:54:04.991Z,102019.44
2018-05-24T02:56:32.505Z,102018.26
2018-05-24T02:59:00.012Z,102011.34
2018-05-24T03:01:27.533Z,102008.78
2018-05-24T03:03:55.029Z,102009.14
2018-05-24T03:06:22.541Z,102003.13
2018-05-24T03:08:50.010Z,102007.27
2018-05-24T03:11:17.596Z,101998.17
2018-05-24T03:13:45.101Z,102004.14
2018-05-24T03:16:12.597Z,102001.86
2018-05-24T03:18:40.082Z,101996.16
2018-05-24T03:21:07.568Z,101995.37
2018-05-24T03:23:35.090Z,102000.14
2018-05-24T03:26:02.575Z,102000.37
2018-05-24T03:28:30.105Z,101994.90
2018-05-24T03:30:57.634Z,101995.19
2018-05-24T03:33:25.169Z,101992.19
2018-05-24T03:35:52.674Z,101989.44
2018-05-24T03:38:20.160Z,101989.75
2018-05-24T03:40:47.775Z,101986.95
2018-05-24T03:43:15.631Z,101988.08
2018-05-24T03:45:43.128Z,101984.86
2018-05-24T03:48:10.752Z,101992.23
2018-05-24T03:50:38.242Z,101994.50
2018-05-24T03:53:05.760Z,101988.71
2018-05-24T03:55:33.252Z,101993.41
2018-05-24T03:58:00.806Z,101992.45
2018-05-24T04:00:40.174Z,101991.28
2018-05-24T04:03:19.581Z,101991.59
2018-05-24T04:05:47.156Z,101999.13
2018-05-24T04:08:14.601Z,102001.80
2018-05-24T04:10:42.127Z,102008.36
2018-05-24T04:13:09.621Z,102007.42
2018-05-24T04:15:37.155Z,102007.83
2018-05-24T04:18:04.632Z,102005.73
2018-05-24T04:20:32.173Z,102008.34
2018-05-24T04:22:59.668Z,102006.69
2018-05-24T04:25:27.158Z,102001.92
2018-05-24T04:27:54.654Z,102003.92
2018-05-24T04:30:22.120Z,102001.34
2018-05-24T04:32:49.646Z,102004.77
2018-05-24T04:35:17.159Z,102000.33
2018-05-24T04:37:44.722Z,102000.27
2018-05-24T04:40:12.195Z,102003.03
2018-05-24T04:42:39.696Z,102004.52
2018-05-24T04:45:07.183Z,102010.33
2018-05-24T04:47:34.737Z,102007.69
2018-05-24T04:50:02.266Z,102003.69
2018-05-24T04:52:29.757Z,102003.54
2018-05-24T04:54:57.258Z,102011.94
2018-05-24T04:57:24.835Z,102007.89
2018-05-24T04:59:52.337Z,102016.77
2018-05-24T05:02:19.880Z,102019.52
2018-05-24T05:04:47.403Z,102014.14
2018-05-24T05:07:15.109Z,102022.03
2018-05-24T05:09:42.619Z,102017.74
2018-05-24T05:12:10.947Z,102022.45
2018-05-24T05:17:12.175Z,102026.77
2018-05-24T05:19:39.727Z,102023.20
2018-05-24T05:22:07.267Z,102023.66
2018-05-24T05:24:34.756Z,102027.26
2018-05-24T05:27:02.258Z,102026.03
2018-05-24T05:29:29.773Z,102025.70
2018-05-24T05:31:57.304Z,102030.20
2018-05-24T05:34:24.818Z,102026.27
2018-05-24T05:36:52.366Z,102028.33
2018-05-24T05:39:19.877Z,102030.55
2018-05-24T05:41:47.494Z,102024.73
2018-05-24T05:44:15.020Z,102025.02
2018-05-24T05:46:42.738Z,102036.23
2018-05-24T05:49:10.237Z,102039.70
2018-05-24T05:51:37.705Z,102038.45
2018-05-24T05:54:05.592Z,102035.09
2018-05-24T05:56:33.097Z,102033.70
2018-05-24T05:59:00.595Z,102042.00
2018-05-24T06:01:28.141Z,102043.42
2018-05-24T06:03:55.678Z,102037.67
2018-05-24T06:06:23.165Z,102037.53
2018-05-24T06:08:50.651Z,102039.55
2018-05-24T06:11:18.261Z,102034.73
2018-05-24T06:13:45.741Z,102044.83
2018-05-24T06:16:13.230Z,102044.38
2018-05-24T06:18:40.705Z,102041.25
2018-05-24T06:21:08.288Z,102050.27
2018-05-24T06:23:35.783Z,102048.88
2018-05-24T06:26:03.289Z,102049.30
2018-05-24T06:28:30.815Z,102042.56
2018-05-24T06:30:58.301Z,102045.91
2018-05-24T06:33:25.826Z,102049.33
2018-05-24T06:35:53.456Z,102049.07
2018-05-24T06:38:21.008Z,102042.34
2018-05-24T06:40:48.498Z,102041.95
2018-05-24T06:43:16.052Z,102040.10
2018-05-24T06:45:43.554Z,102039.70
2018-05-24T06:48:11.089Z,102035.23
2018-05-24T06:50:38.581Z,102032.63
2018-05-24T06:53:06.075Z,102041.03
2018-05-24T06:55:34.271Z,102033.18
2018-05-24T07:06:45.024Z,102033.03
2018-05-24T07:09:12.525Z,102030.72
2018-05-24T07:11:40.054Z,102036.09
2018-05-24T07:14:07.535Z,102031.08
2018-05-24T07:16:35.060Z,102034.69
2018-05-24T07:19:02.559Z,102033.67
2018-05-24T07:21:30.054Z,102028.77
2018-05-24T07:23:57.525Z,102028.61
2018-05-24T07:26:25.024Z,102015.65
2018-05-24T07:28:52.490Z,102022.97
2018-05-24T07:31:20.040Z,102011.81
2018-05-24T07:33:47.616Z,102014.58
2018-05-24T07:36:16.911Z,102013.17
2018-05-24T07:38:44.522Z,102019.95
2018-05-24T07:41:12.050Z,102017.13
2018-05-24T07:50:07.952Z,102015.98
2018-05-24T07:52:35.463Z,102019.28
2018-05-24T07:55:03.001Z,102011.12
2018-05-24T07:57:30.622Z,102011.25
2018-05-24T07:59:58.270Z,102011.98
2018-05-24T08:02:25.904Z,102005.78
2018-05-24T08:04:53.422Z,102010.50
2018-05-24T08:07:20.930Z,102005.07
2018-05-24T08:09:48.441Z,102005.75
2018-05-24T08:12:15.953Z,102009.73
2018-05-24T08:14:43.489Z,102007.82
2018-05-24T08:17:11.013Z,102009.19
2018-05-24T08:19:51.001Z,102010.59
2018-05-24T08:22:18.529Z,102005.12
2018-05-24T08:24:46.026Z,101998.06
2018-05-24T08:27:13.601Z,102003.52
2018-05-24T08:29:41.125Z,101994.51
2018-05-24T08:32:09.632Z,101996.97
2018-05-24T08:34:37.117Z,101986.47
2018-05-24T08:37:04.698Z,101985.53
2018-05-24T08:39:32.190Z,101992.20
2018-05-24T08:41:59.687Z,101980.61
2018-05-24T08:44:27.216Z,101983.97
2018-05-24T08:46:54.721Z,101981.66
2018-05-24T08:49:22.264Z,101976.22
2018-05-24T08:51:49.761Z,101974.58
2018-05-24T08:54:17.303Z,101972.21
2018-05-24T08:59:43.876Z,101969.15
2018-05-24T09:02:11.432Z,101967.44
2018-05-24T09:04:39.875Z,101961.63
2018-05-24T09:07:07.398Z,101968.70
2018-05-24T09:09:34.924Z,101964.15
2018-05-24T09:12:02.431Z,101965.08
2018-05-24T09:14:29.956Z,101973.91
2018-05-24T09:16:57.468Z,101963.67
2018-05-24T09:19:24.996Z,101962.09
2018-05-24T09:21:52.603Z,101962.88
2018-05-24T09:24:20.036Z,101949.77
2018-05-24T09:26:47.553Z,101951.44
2018-05-24T09:29:15.051Z,101949.45
2018-05-24T09:31:42.601Z,101957.62
2018-05-24T09:34:10.110Z,101955.64
2018-05-24T09:36:37.620Z,101946.93
2018-05-24T09:39:05.170Z,101948.27
2018-05-24T09:41:32.668Z,101950.36
2018-05-24T09:44:00.182Z,101940.53
2018-05-24T09:46:27.693Z,101936.19
2018-05-24T09:48:55.194Z,101943.53
2018-05-24T09:51:22.671Z,101932.19
2018-05-24T09:53:50.284Z,101927.59
2018-05-24T09:56:17.752Z,101928.34
2018-05-24T09:58:45.271Z,101936.80
2018-05-24T10:01:12.762Z,101936.08
2018-05-24T10:03:40.363Z,101922.30
2018-05-24T10:06:07.857Z,101917.63
2018-05-24T10:08:35.346Z,101925.34
2018-05-24T10:11:02.887Z,101926.52
2018-05-24T10:13:30.469Z,101917.77
2018-05-24T10:15:57.991Z,101903.02
2018-05-24T10:18:25.468Z,101905.95
2018-05-24T10:20:52.960Z,101904.13
2018-05-24T10:23:20.494Z,101898.20
2018-05-24T10:25:47.993Z,101903.84
2018-05-24T10:28:15.495Z,101896.78
2018-05-24T10:30:43.040Z,101885.32
2018-05-24T10:33:10.536Z,101898.45
2018-05-24T10:35:38.071Z,101887.72
2018-05-24T10:38:05.568Z,101887.84
2018-05-24T10:40:33.071Z,101879.72
2018-05-24T10:43:00.604Z,101885.95
2018-05-24T10:45:28.115Z,101881.36
2018-05-24T10:47:55.633Z,101873.20
2018-05-24T10:50:23.106Z,101883.70
2018-05-24T10:52:50.691Z,101892.78
2018-05-24T10:55:18.240Z,101894.76
2018-05-24T10:57:45.728Z,101884.77
2018-05-24T11:00:13.363Z,101887.84
2018-05-24T11:02:40.893Z,101877.25
2018-05-24T11:05:08.424Z,101880.16
2018-05-24T11:07:35.911Z,101880.10
2018-05-24T11:10:03.432Z,101877.11
2018-05-24T11:12:30.996Z,101874.25
2018-05-24T11:14:58.520Z,101874.45
2018-05-24T11:17:26.024Z,101882.38
2018-05-24T11:19:53.579Z,101878.80
2018-05-24T11:22:21.078Z,101878.59
2018-05-24T11:24:49.119Z,101874.92
2018-05-24T11:27:16.621Z,101875.13
2018-05-24T11:29:44.146Z,101869.41
2018-05-24T11:32:11.641Z,101879.01
2018-05-24T11:34:39.131Z,101865.54
2018-05-24T11:37:06.713Z,101868.20
2018-05-24T11:39:34.293Z,101858.84
2018-05-24T11:42:01.824Z,101864.88
2018-05-24T11:44:29.349Z,101854.16
2018-05-24T11:46:56.835Z,101852.11
2018-05-24T11:49:24.341Z,101859.63
2018-05-24T11:51:51.839Z,101847.78
2018-05-24T11:54:19.419Z,101845.09
2018-05-24T11:56:46.928Z,101848.17
2018-05-24T11:59:14.464Z,101844.44
2018-05-24T12:01:42.090Z,101839.70
2018-05-24T12:04:09.539Z,101836.61
2018-05-24T12:06:37.013Z,101829.05
2018-05-24T12:09:04.599Z,101827.41
2018-05-24T12:11:32.104Z,101832.73
2018-05-24T12:13:59.643Z,101821.27
2018-05-24T12:16:27.125Z,101819.41
2018-05-24T12:18:54.647Z,101812.63
2018-05-24T12:21:22.255Z,101818.14
2018-05-24T12:23:49.835Z,101810.30
2018-05-24T12:26:17.296Z,101803.88
2018-05-24T12:28:44.931Z,101806.33
2018-05-24T12:31:12.418Z,101805.98
2018-05-24T12:33:39.979Z,101815.11
2018-05-24T12:36:07.557Z,101798.38
2018-05-24T12:38:35.042Z,101796.89
2018-05-24T12:41:02.536Z,101797.56
2018-05-24T12:43:30.005Z,101800.92
2018-05-24T12:45:57.543Z,101788.49
2018-05-24T12:48:25.075Z,101788.13
2018-05-24T12:50:52.593Z,101782.61
2018-05-24T12:53:20.146Z,101788.29
2018-05-24T12:55:47.615Z,101784.28
2018-05-24T12:58:15.141Z,101771.80
2018-05-24T13:00:42.640Z,101766.77
2018-05-24T13:03:10.144Z,101764.02
2018-05-24T13:05:37.634Z,101768.86
2018-05-24T13:08:05.143Z,101769.52
2018-05-24T13:10:32.672Z,101756.55
2018-05-24T13:13:00.187Z,101766.47
2018-05-24T13:15:28.380Z,101761.25
2018-05-24T13:17:55.891Z,101759.48
2018-05-24T13:20:23.395Z,101753.39
2018-05-24T13:22:50.954Z,101756.22
2018-05-24T13:25:18.430Z,101750.95
2018-05-24T13:27:45.954Z,101756.50
2018-05-24T13:30:13.475Z,101749.86
2018-05-24T13:32:41.264Z,101748.13
2018-05-24T13:35:08.775Z,101734.80
2018-05-24T13:37:36.367Z,101738.10
2018-05-24T13:40:03.851Z,101730.39
2018-05-24T13:42:31.385Z,101730.94
2018-05-24T13:44:58.889Z,101728.73
2018-05-24T13:47:26.488Z,101726.02
2018-05-24T13:49:53.974Z,101723.02
2018-05-24T13:52:21.518Z,101728.63
2018-05-24T13:54:49.133Z,101725.41
2018-05-24T13:57:16.725Z,101720.55
2018-05-24T13:59:44.795Z,101718.20
2018-05-24T14:02:12.327Z,101713.59
2018-05-24T14:04:40.339Z,101716.67
2018-05-24T14:07:08.099Z,101715.64
2018-05-24T14:09:35.668Z,101712.14
2018-05-24T14:12:03.256Z,101707.69
2018-05-24T14:14:30.767Z,101706.38
2018-05-24T14:16:58.244Z,101705.09
2018-05-24T14:19:25.752Z,101705.08
2018-05-24T14:21:53.254Z,101706.45
2018-05-24T14:24:20.782Z,101701.33
2018-05-24T14:26:48.343Z,101699.71
2018-05-24T14:29:15.832Z,101692.22
2018-05-24T14:31:43.375Z,101694.68
2018-05-24T14:34:10.858Z,101693.05
2018-05-24T14:36:38.389Z,101701.28
2018-05-24T14:39:05.869Z,101693.02
2018-05-24T14:41:33.551Z,101675.15
2018-05-24T14:44:01.027Z,101675.62
2018-05-24T14:46:28.761Z,101672.22
2018-05-24T14:48:56.260Z,101667.91
2018-05-24T14:51:23.768Z,101669.64
2018-05-24T14:53:51.326Z,101666.64
2018-05-24T14:56:18.827Z,101667.69
2018-05-24T14:58:46.333Z,101659.96
2018-05-24T15:01:13.803Z,101665.23
2018-05-24T15:03:41.340Z,101662.52
2018-05-24T15:06:08.863Z,101662.59
2018-05-24T15:08:36.367Z,101658.20
2018-05-24T15:11:03.852Z,101661.95
2018-05-24T15:13:43.238Z,101660.70
2018-05-24T15:16:10.829Z,101654.87
2018-05-24T15:18:38.317Z,101652.62
2018-05-24T15:21:05.841Z,101645.63
2018-05-24T15:23:33.437Z,101648.03
2018-05-24T15:26:00.964Z,101646.44
2018-05-24T15:28:28.449Z,101646.45
2018-05-24T15:30:56.241Z,101649.94
2018-05-24T15:33:23.827Z,101647.73
2018-05-24T15:35:51.431Z,101645.27
2018-05-24T15:38:19.033Z,101635.17
2018-05-24T15:40:46.554Z,101647.03
2018-05-24T15:43:14.107Z,101636.34
2018-05-24T15:45:41.637Z,101641.53
2018-05-24T15:48:09.220Z,101635.60
2018-05-24T15:50:36.849Z,101640.80
2018-05-24T15:53:04.449Z,101633.31
2018-05-24T15:55:31.923Z,101624.56
2018-05-24T15:57:59.461Z,101617.36
2018-05-24T16:00:26.988Z,101621.56
2018-05-24T16:02:54.612Z,101627.84
2018-05-24T16:05:22.136Z,101629.72
2018-05-24T16:07:49.613Z,101630.36
2018-05-24T16:10:17.101Z,101626.98
2018-05-24T16:12:44.675Z,101622.45
2018-05-24T16:15:12.173Z,101626.84
2018-05-24T16:17:39.671Z,101623.00
2018-05-24T16:20:07.502Z,101630.72
2018-05-24T16:22:35.126Z,101616.91
2018-05-24T16:25:02.708Z,101617.13
2018-05-24T16:27:30.307Z,101627.45
2018-05-24T16:29:57.872Z,101621.00
2018-05-24T16:32:25.447Z,101619.98
2018-05-24T16:34:53.035Z,101618.30
2018-05-24T16:37:20.632Z,101621.12
2018-05-24T16:39:48.175Z,101620.71
2018-05-24T16:42:15.754Z,101627.55
2018-05-24T16:44:43.404Z,101624.56
2018-05-24T16:47:10.957Z,101620.51
2018-05-24T16:49:38.533Z,101616.63
2018-05-24T16:52:06.189Z,101621.06
2018-05-24T16:54:33.785Z,101618.08
2018-05-24T16:57:01.215Z,101612.70
2018-05-24T16:59:28.817Z,101617.45
2018-05-24T17:01:56.297Z,101618.81
2018-05-24T17:04:23.798Z,101619.94
2018-05-24T17:06:51.310Z,101618.21
2018-05-24T17:09:18.828Z,101617.67
2018-05-24T17:11:46.320Z,101612.62
2018-05-24T17:14:13.893Z,101614.91
2018-05-24T17:16:41.427Z,101612.30
2018-05-24T17:19:20.383Z,101605.81
2018-05-24T17:21:47.979Z,101611.42
2018-05-24T17:24:15.474Z,101607.23
2018-05-24T17:26:43.026Z,101616.86
2018-05-24T17:29:10.550Z,101613.77
2018-05-24T17:31:38.054Z,101615.30
2018-05-24T17:34:05.534Z,101613.05
2018-05-24T17:36:33.062Z,101612.00
2018-05-24T17:39:00.573Z,101615.05
2018-05-24T17:41:28.139Z,101608.81
2018-05-24T17:43:55.672Z,101604.84
2018-05-24T17:46:23.220Z,101606.95
2018-05-24T17:48:50.875Z,101614.09
2018-05-24T17:51:18.380Z,101613.11
2018-05-24T17:53:45.908Z,101616.12
2018-05-24T17:56:13.405Z,101611.83
2018-05-24T17:58:41.115Z,101611.41
2018-05-24T18:01:08.641Z,101613.66
2018-05-24T18:03:36.203Z,101620.13
2018-05-24T18:06:03.725Z,101613.65
2018-05-24T18:08:31.201Z,101615.27
2018-05-24T18:10:58.720Z,101617.27
2018-05-24T18:13:26.299Z,101618.77
2018-05-24T18:15:53.790Z,101618.16
2018-05-24T18:18:21.301Z,101621.72
2018-05-24T18:20:48.795Z,101622.70
2018-05-24T18:23:16.448Z,101625.16
2018-05-24T18:25:43.944Z,101633.75
2018-05-24T18:28:11.444Z,101633.23
2018-05-24T18:30:38.941Z,101633.28
2018-05-24T18:33:06.576Z,101635.59
2018-05-24T18:35:34.065Z,101639.16
2018-05-24T18:38:01.575Z,101638.96
2018-05-24T18:40:29.083Z,101644.77
2018-05-24T18:42:56.722Z,101641.98
2018-05-24T18:45:24.130Z,101648.75
2018-05-24T18:47:51.609Z,101659.41
2018-05-24T18:50:19.144Z,101650.32
2018-05-24T18:52:46.621Z,101659.16
2018-05-24T18:55:14.152Z,101661.66
2018-05-24T18:57:41.639Z,101662.81
2018-05-24T19:00:09.109Z,101663.50
2018-05-24T19:02:36.653Z,101673.42
2018-05-24T19:05:04.145Z,101668.73
2018-05-24T19:07:31.665Z,101668.15
2018-05-24T19:09:59.270Z,101679.44
2018-05-24T19:12:26.761Z,101682.46
2018-05-24T19:14:54.264Z,101685.94
2018-05-24T19:17:21.760Z,101687.61
2018-05-24T19:19:49.267Z,101692.26
2018-05-24T19:22:16.842Z,101694.87
2018-05-24T19:24:44.339Z,101700.91
2018-05-24T19:27:11.851Z,101704.23
2018-05-24T19:29:39.336Z,101697.28
2018-05-24T19:32:06.890Z,101701.81
2018-05-24T19:34:34.398Z,101702.28
2018-05-24T19:37:02.627Z,101705.26
2018-05-24T19:39:30.112Z,101703.11
2018-05-24T19:41:57.631Z,101707.42
2018-05-24T19:44:25.146Z,101713.75
2018-05-24T19:46:52.636Z,101720.16
2018-05-24T19:49:20.161Z,101720.56
2018-05-24T19:51:47.633Z,101725.88
2018-05-24T19:54:15.180Z,101720.39
2018-05-24T19:56:42.648Z,101722.78
2018-05-24T19:59:10.201Z,101729.42
2018-05-24T20:01:37.704Z,101731.11
2018-05-24T20:04:05.207Z,101732.59
2018-05-24T20:06:32.741Z,101736.55
2018-05-24T20:09:00.259Z,101727.94
2018-05-24T20:11:27.792Z,101737.77
2018-05-24T20:13:55.277Z,101735.70
2018-05-24T20:16:22.857Z,101739.40
2018-05-24T20:18:50.364Z,101740.48
2018-05-24T20:21:17.899Z,101742.59
2018-05-24T20:23:45.420Z,101742.72
2018-05-24T20:26:12.929Z,101746.98
2018-05-24T20:28:40.908Z,101742.88
2018-05-24T20:31:08.584Z,101738.17
2018-05-24T20:33:36.108Z,101740.80
2018-05-24T20:36:03.640Z,101745.86
2018-05-24T20:38:31.148Z,101741.72
2018-05-24T20:40:58.637Z,101749.59
2018-05-24T20:43:26.489Z,101754.03
2018-05-24T20:45:54.070Z,101761.03
2018-05-24T20:48:21.574Z,101765.11
2018-05-24T20:50:49.136Z,101759.20
2018-05-24T20:53:17.100Z,101761.23
2018-05-24T20:55:44.737Z,101760.56
2018-05-24T20:58:13.005Z,101760.62
2018-05-24T21:00:40.565Z,101760.13
2018-05-24T21:03:08.076Z,101770.05
2018-05-24T21:05:35.629Z,101762.59
2018-05-24T21:08:03.145Z,101761.83
2018-05-24T21:10:30.680Z,101759.22
2018-05-24T21:12:58.161Z,101759.89
2018-05-24T21:15:25.691Z,101764.14
2018-05-24T21:17:53.299Z,101768.81
2018-05-24T21:20:21.219Z,101764.25
2018-05-24T21:22:49.828Z,101772.16
2018-05-24T21:25:17.396Z,101773.13
2018-05-24T21:27:44.920Z,101767.34
2018-05-24T21:33:11.534Z,101772.70
2018-05-24T21:35:39.035Z,101774.88
2018-05-24T21:38:06.621Z,101767.63
2018-05-24T21:40:34.094Z,101766.17
2018-05-24T21:43:01.638Z,101766.34
2018-05-24T21:45:29.126Z,101768.14
2018-05-24T21:47:56.674Z,101764.99
2018-05-24T21:50:24.176Z,101766.56
2018-05-24T21:52:51.728Z,101769.66
2018-05-24T21:55:19.264Z,101773.81
2018-05-24T21:57:46.779Z,101770.56
2018-05-24T22:00:14.298Z,101771.05
2018-05-24T22:02:41.797Z,101768.06
2018-05-24T22:05:09.304Z,101767.03
2018-05-24T22:07:36.801Z,101772.16
2018-05-24T22:10:04.284Z,101771.97
2018-05-24T22:12:31.785Z,101773.22
2018-05-24T22:14:59.260Z,101766.43
2018-05-24T22:17:26.769Z,101767.59
2018-05-24T22:19:54.257Z,101777.52
2018-05-24T22:22:21.805Z,101770.25
2018-05-24T22:24:49.275Z,101773.36
2018-05-24T22:27:16.816Z,101775.72
2018-05-24T22:29:44.334Z,101775.38
2018-05-24T22:32:11.811Z,101767.05
2018-05-24T22:34:39.320Z,101765.95
2018-05-24T22:37:06.821Z,101770.77
2018-05-24T22:39:34.344Z,101772.39
2018-05-24T22:42:02.317Z,101771.89
2018-05-24T22:44:29.880Z,101781.70
2018-05-24T22:46:57.354Z,101778.41
2018-05-24T22:49:24.930Z,101772.14
2018-05-24T22:51:52.406Z,101779.94
2018-05-24T22:54:20.912Z,101771.34
2018-05-24T22:56:48.435Z,101779.52
2018-05-24T22:59:15.952Z,101775.05
2018-05-24T23:01:43.476Z,101775.81
2018-05-24T23:04:10.993Z,101773.69
2018-05-24T23:06:38.966Z,101767.64
2018-05-24T23:09:06.486Z,101765.63
2018-05-24T23:11:33.976Z,101765.34
2018-05-24T23:14:01.457Z,101766.88
2018-05-24T23:16:29.029Z,101767.80
2018-05-24T23:18:56.529Z,101766.02
2018-05-24T23:21:24.547Z,101770.48
2018-05-24T23:23:52.045Z,101764.92
2018-05-24T23:26:19.542Z,101770.52
2018-05-24T23:28:47.056Z,101761.66
2018-05-24T23:31:14.587Z,101767.91
2018-05-24T23:33:42.157Z,101772.94
2018-05-24T23:36:09.637Z,101765.34
2018-05-24T23:38:37.144Z,101774.20
2018-05-24T23:41:04.702Z,101773.69
2018-05-24T23:43:32.183Z,101772.13
2018-05-24T23:45:59.702Z,101771.89
2018-05-24T23:48:27.183Z,101777.04
2018-05-24T23:50:54.686Z,101771.32
2018-05-24T23:53:22.218Z,101773.88
2018-05-24T23:55:49.719Z,101771.47
2018-05-24T23:58:17.205Z,101777.28
